createdAt,value
2022-08-01T00:02:00.552Z,14.57
2022-08-01T00:04:50.349Z,14.27
2022-08-01T00:07:40.748Z,13.80
2022-08-01T00:10:30.731Z,14.10
2022-08-01T00:13:20.889Z,13.98
2022-08-01T00:16:10.688Z,16.50
2022-08-01T00:19:01.752Z,16.92
2022-08-01T00:21:52.571Z,18.42
2022-08-01T00:24:45.050Z,17.77
2022-08-01T00:27:37.767Z,19.05
2022-08-01T00:30:27.737Z,19.20
2022-08-01T00:33:17.642Z,19.33
2022-08-01T00:36:08.171Z,22.30
2022-08-01T00:39:00.553Z,22.10
2022-08-01T00:41:51.008Z,21.17
2022-08-01T00:44:50.107Z,22.02
2022-08-01T00:47:40.275Z,23.27
2022-08-01T00:50:30.624Z,20.08
2022-08-01T00:53:19.857Z,18.88
2022-08-01T00:56:11.770Z,18.33
2022-08-01T00:59:01.675Z,20.05
2022-08-01T01:01:52.646Z,17.20
2022-08-01T01:04:43.271Z,7.35
2022-08-01T01:07:57.433Z,4.65
2022-08-01T01:10:59.023Z,4.90
2022-08-01T01:14:05.200Z,5.38
2022-08-01T01:16:55.815Z,5.40
2022-08-01T01:19:51.058Z,5.45
2022-08-01T01:22:56.220Z,4.25
2022-08-01T01:26:23.831Z,5.78
2022-08-01T01:29:59.874Z,6.53
2022-08-01T01:32:51.883Z,6.15
2022-08-01T01:35:52.356Z,7.90
2022-08-01T01:38:47.390Z,4.93
2022-08-01T01:41:40.411Z,5.85
2022-08-01T01:44:30.784Z,5.82
2022-08-01T01:47:21.240Z,4.88
2022-08-01T01:50:12.371Z,5.75
2022-08-01T01:53:02.992Z,6.38
2022-08-01T01:55:57.058Z,6.50
2022-08-01T01:58:47.428Z,5.72
2022-08-01T02:01:57.935Z,5.20
2022-08-01T02:04:49.953Z,5.20
2022-08-01T02:07:42.262Z,6.15
2022-08-01T02:10:35.184Z,5.53
2022-08-01T02:13:25.972Z,5.70
2022-08-01T02:16:16.694Z,6.35
2022-08-01T02:19:06.876Z,5.93
2022-08-01T02:22:20.306Z,5.50
2022-08-01T02:25:19.017Z,4.65
2022-08-01T02:28:12.284Z,3.30
2022-08-01T02:31:07.671Z,5.00
2022-08-01T02:34:05.092Z,4.65
2022-08-01T02:36:55.296Z,6.22
2022-08-01T02:39:45.618Z,5.85
2022-08-01T02:42:41.537Z,5.47
2022-08-01T02:45:32.306Z,4.80
2022-08-01T02:48:22.441Z,5.20
2022-08-01T02:51:14.230Z,3.55
2022-08-01T02:54:07.073Z,3.50
2022-08-01T02:57:01.345Z,3.10
2022-08-01T02:59:53.258Z,3.95
2022-08-01T03:02:47.926Z,10.35
2022-08-01T03:05:38.593Z,5.30
2022-08-01T03:08:28.529Z,6.80
2022-08-01T03:11:18.542Z,5.25
2022-08-01T03:14:11.177Z,5.03
2022-08-01T03:17:01.146Z,3.60
2022-08-01T03:19:51.951Z,4.88
2022-08-01T03:22:42.765Z,5.50
2022-08-01T03:25:34.735Z,6.68
2022-08-01T03:28:29.576Z,6.85
2022-08-01T03:31:20.749Z,6.68
2022-08-01T03:34:10.948Z,8.38
2022-08-01T03:37:30.706Z,9.75
2022-08-01T03:40:31.341Z,10.10
2022-08-01T03:43:30.479Z,10.60
2022-08-01T03:46:25.313Z,8.38
2022-08-01T03:49:21.243Z,9.48
2022-08-01T03:52:11.740Z,8.82
2022-08-01T03:55:07.493Z,8.15
2022-08-01T03:57:57.632Z,10.10
2022-08-01T04:00:47.406Z,9.80
2022-08-01T04:03:41.852Z,10.95
2022-08-01T04:06:32.865Z,9.70
2022-08-01T04:09:24.121Z,9.02
2022-08-01T04:12:13.901Z,10.82
2022-08-01T04:15:04.384Z,9.60
2022-08-01T04:17:56.455Z,8.27
2022-08-01T04:20:45.887Z,7.90
2022-08-01T04:23:40.689Z,6.13
2022-08-01T04:26:33.129Z,7.13
2022-08-01T04:29:24.201Z,7.20
2022-08-01T04:32:15.977Z,6.47
2022-08-01T04:35:23.372Z,6.28
2022-08-01T04:38:25.625Z,6.68
2022-08-01T04:41:17.490Z,6.18
2022-08-01T04:44:09.269Z,5.25
2022-08-01T04:46:59.345Z,4.90
2022-08-01T04:49:49.541Z,5.43
2022-08-01T04:52:40.756Z,3.92
2022-08-01T04:55:30.383Z,3.40
2022-08-01T04:58:20.444Z,3.40
2022-08-01T05:01:10.909Z,4.35
2022-08-01T05:04:01.050Z,3.25
2022-08-01T05:06:51.442Z,4.50
2022-08-01T05:09:48.562Z,3.40
2022-08-01T05:12:38.785Z,2.95
2022-08-01T05:15:29.412Z,3.25
2022-08-01T05:18:18.990Z,2.42
2022-08-01T05:21:19.657Z,2.80
2022-08-01T05:24:09.518Z,2.60
2022-08-01T05:27:00.252Z,2.50
2022-08-01T05:29:50.538Z,2.38
2022-08-01T05:32:40.767Z,2.80
2022-08-01T05:35:48.758Z,3.42
2022-08-01T05:38:40.209Z,2.60
2022-08-01T05:41:29.726Z,2.50
2022-08-01T05:44:19.996Z,2.42
2022-08-01T05:47:09.446Z,4.57
2022-08-01T05:49:59.662Z,3.00
2022-08-01T05:52:49.103Z,3.03
2022-08-01T05:55:39.594Z,3.15
2022-08-01T05:58:31.214Z,3.17
2022-08-01T06:01:21.328Z,2.25
2022-08-01T06:04:11.527Z,2.22
2022-08-01T06:07:01.331Z,1.92
2022-08-01T06:09:51.050Z,1.88
2022-08-01T06:12:41.136Z,1.70
2022-08-01T06:15:32.054Z,1.60
2022-08-01T06:18:22.644Z,1.65
2022-08-01T06:21:12.904Z,2.00
2022-08-01T06:24:03.306Z,2.00
2022-08-01T06:26:53.055Z,2.75
2022-08-01T06:29:51.264Z,2.47
2022-08-01T06:32:44.846Z,2.90
2022-08-01T06:35:34.796Z,2.33
2022-08-01T06:38:25.157Z,2.05
2022-08-01T06:41:16.121Z,2.20
2022-08-01T06:44:06.725Z,2.08
2022-08-01T06:46:57.836Z,2.13
2022-08-01T06:49:47.668Z,2.00
2022-08-01T06:52:38.298Z,2.80
2022-08-01T06:55:27.792Z,2.15
2022-08-01T06:58:20.367Z,2.00
2022-08-01T07:01:23.816Z,2.10
2022-08-01T07:04:16.084Z,3.03
2022-08-01T07:07:06.600Z,3.47
2022-08-01T07:09:56.448Z,2.95
2022-08-01T07:12:47.041Z,2.70
2022-08-01T07:15:36.879Z,2.47
2022-08-01T07:18:26.682Z,3.08
2022-08-01T07:21:39.286Z,3.72
2022-08-01T07:24:26.982Z,2.70
2022-08-01T07:27:25.636Z,2.70
2022-08-01T07:30:16.711Z,2.50
2022-08-01T07:33:06.812Z,3.30
2022-08-01T07:35:56.276Z,2.53
2022-08-01T07:38:47.984Z,2.67
2022-08-01T07:42:05.575Z,3.30
2022-08-01T07:44:48.366Z,2.60
2022-08-01T07:47:38.184Z,2.65
2022-08-01T07:50:27.782Z,2.75
2022-08-01T07:53:20.344Z,2.97
2022-08-01T07:56:09.936Z,2.58
2022-08-01T07:58:59.621Z,3.15
2022-08-01T08:01:49.281Z,2.85
2022-08-01T08:04:39.236Z,2.63
2022-08-01T08:07:29.210Z,3.35
2022-08-01T08:10:19.370Z,3.70
2022-08-01T08:13:12.358Z,3.70
2022-08-01T08:16:06.004Z,3.00
2022-08-01T08:18:55.716Z,3.13
2022-08-01T08:21:48.091Z,3.88
2022-08-01T08:24:45.665Z,2.78
2022-08-01T08:27:37.533Z,2.40
2022-08-01T08:30:27.575Z,2.42
2022-08-01T08:33:16.558Z,3.53
2022-08-01T08:36:07.430Z,2.50
2022-08-01T08:38:57.465Z,2.83
2022-08-01T08:41:49.515Z,2.70
2022-08-01T08:44:43.705Z,2.80
2022-08-01T08:47:36.400Z,2.72
2022-08-01T08:50:28.094Z,2.90
2022-08-01T08:53:18.770Z,3.10
2022-08-01T08:56:10.036Z,2.60
2022-08-01T08:59:02.556Z,3.35
2022-08-01T09:01:53.492Z,3.30
2022-08-01T09:04:44.267Z,3.00
2022-08-01T09:07:33.943Z,4.22
2022-08-01T09:10:23.508Z,3.60
2022-08-01T09:13:17.088Z,5.30
2022-08-01T09:16:08.931Z,3.00
2022-08-01T09:19:16.009Z,2.60
2022-08-01T09:22:26.629Z,3.03
2022-08-01T09:25:16.224Z,2.33
2022-08-01T09:28:09.232Z,3.40
2022-08-01T09:31:02.456Z,3.00
2022-08-01T09:33:57.487Z,3.70
2022-08-01T09:37:00.763Z,3.25
2022-08-01T09:40:00.205Z,3.13
2022-08-01T09:42:54.141Z,3.35
2022-08-01T09:45:45.793Z,4.50
2022-08-01T09:48:41.938Z,2.90
2022-08-01T09:52:00.192Z,3.13
2022-08-01T09:55:00.677Z,3.47
2022-08-01T09:58:00.520Z,3.28
2022-08-01T10:01:02.796Z,3.13
2022-08-01T10:04:15.490Z,3.25
2022-08-01T10:07:09.242Z,2.88
2022-08-01T10:09:59.253Z,3.17
2022-08-01T10:12:51.457Z,4.25
2022-08-01T10:15:42.357Z,4.13
2022-08-01T10:18:35.606Z,3.35
2022-08-01T10:21:57.230Z,4.05
2022-08-01T10:24:41.478Z,3.20
2022-08-01T10:27:37.907Z,2.97
2022-08-01T10:30:29.133Z,3.05
2022-08-01T10:33:50.794Z,3.22
2022-08-01T10:36:31.079Z,3.85
2022-08-01T10:39:23.011Z,2.90
2022-08-01T10:42:15.559Z,4.07
2022-08-01T10:45:06.164Z,3.88
2022-08-01T10:48:08.102Z,4.15
2022-08-01T10:51:03.767Z,2.92
2022-08-01T10:53:57.345Z,3.65
2022-08-01T10:56:53.250Z,3.20
2022-08-01T10:59:59.443Z,3.70
2022-08-01T11:03:05.764Z,3.60
2022-08-01T11:05:55.744Z,3.03
2022-08-01T11:08:54.278Z,2.97
2022-08-01T11:12:03.034Z,2.80
2022-08-01T11:15:03.145Z,2.97
2022-08-01T11:17:55.094Z,3.28
2022-08-01T11:21:58.631Z,5.53
2022-08-01T11:24:11.247Z,3.50
2022-08-01T11:27:24.353Z,3.67
2022-08-01T11:30:14.126Z,2.67
2022-08-01T11:33:11.213Z,3.25
2022-08-01T11:36:18.242Z,2.72
2022-08-01T11:39:13.175Z,3.80
2022-08-01T11:42:22.891Z,3.45
2022-08-01T11:45:18.085Z,5.28
2022-08-01T11:48:22.056Z,4.15
2022-08-01T11:51:25.383Z,4.30
2022-08-01T11:54:15.496Z,3.47
2022-08-01T11:57:34.060Z,3.55
2022-08-01T12:00:25.925Z,3.78
2022-08-01T12:03:19.151Z,4.10
2022-08-01T12:06:31.000Z,2.90
2022-08-01T12:09:23.368Z,3.00
2022-08-01T12:12:13.664Z,3.17
2022-08-01T12:15:09.969Z,3.33
2022-08-01T12:18:01.786Z,2.63
2022-08-01T12:20:56.950Z,2.17
2022-08-01T12:23:47.090Z,3.22
2022-08-01T12:26:46.437Z,3.25
2022-08-01T12:29:40.459Z,3.25
2022-08-01T12:32:38.877Z,3.00
2022-08-01T12:35:29.933Z,3.63
2022-08-01T12:38:21.558Z,3.15
2022-08-01T12:41:14.124Z,3.63
2022-08-01T12:44:04.396Z,2.58
2022-08-01T12:46:56.522Z,3.25
2022-08-01T12:49:46.924Z,3.00
2022-08-01T12:52:36.965Z,3.28
2022-08-01T12:55:34.166Z,3.83
2022-08-01T12:58:25.005Z,2.90
2022-08-01T13:01:16.054Z,2.95
2022-08-01T13:04:06.834Z,3.33
2022-08-01T13:06:57.218Z,2.38
2022-08-01T13:09:55.833Z,2.90
2022-08-01T13:12:55.357Z,2.95
2022-08-01T13:15:46.916Z,2.67
2022-08-01T13:18:38.111Z,2.97
2022-08-01T13:21:52.945Z,2.88
2022-08-01T13:24:42.293Z,2.97
2022-08-01T13:27:32.393Z,2.40
2022-08-01T13:30:25.243Z,2.65
2022-08-01T13:33:14.997Z,3.00
2022-08-01T13:36:07.950Z,2.55
2022-08-01T13:39:17.098Z,5.00
2022-08-01T13:42:07.255Z,3.63
2022-08-01T13:44:57.421Z,4.60
2022-08-01T13:48:12.043Z,4.78
2022-08-01T13:51:13.492Z,4.50
2022-08-01T13:54:08.038Z,4.35
2022-08-01T13:56:58.097Z,5.80
2022-08-01T13:59:47.289Z,3.60
2022-08-01T14:02:37.511Z,4.47
2022-08-01T14:05:27.259Z,5.32
2022-08-01T14:08:18.005Z,4.30
2022-08-01T14:11:08.415Z,4.70
2022-08-01T14:13:58.552Z,4.35
2022-08-01T14:16:48.468Z,5.40
2022-08-01T14:19:41.223Z,3.40
2022-08-01T14:22:33.141Z,6.75
2022-08-01T14:26:00.634Z,7.95
2022-08-01T14:28:35.670Z,6.95
2022-08-01T14:31:25.246Z,7.40
2022-08-01T14:34:15.567Z,5.80
2022-08-01T14:37:04.952Z,7.25
2022-08-01T14:39:54.777Z,7.18
2022-08-01T14:42:46.482Z,5.85
2022-08-01T14:45:37.101Z,5.40
2022-08-01T14:48:27.247Z,4.60
2022-08-01T14:51:16.659Z,4.40
2022-08-01T14:54:07.246Z,2.58
2022-08-01T14:56:59.558Z,3.00
2022-08-01T14:59:49.759Z,4.10
2022-08-01T15:02:39.995Z,3.60
2022-08-01T15:05:31.193Z,3.25
2022-08-01T15:08:20.943Z,3.55
2022-08-01T15:11:11.020Z,3.58
2022-08-01T15:14:18.951Z,3.40
2022-08-01T15:17:12.909Z,3.53
2022-08-01T15:20:07.036Z,3.15
2022-08-01T15:23:18.290Z,2.72
2022-08-01T15:26:15.953Z,3.47
2022-08-01T15:29:06.054Z,3.25
2022-08-01T15:31:56.013Z,2.90
2022-08-01T15:34:46.563Z,2.33
2022-08-01T15:37:40.887Z,3.00
2022-08-01T15:40:36.517Z,3.60
2022-08-01T15:43:32.354Z,5.50
2022-08-01T15:46:22.527Z,6.38
2022-08-01T15:49:13.039Z,4.90
2022-08-01T15:52:02.783Z,6.00
2022-08-01T15:54:52.398Z,7.55
2022-08-01T15:57:41.965Z,5.35
2022-08-01T16:00:34.752Z,5.03
2022-08-01T16:03:30.189Z,5.80
2022-08-01T16:06:20.018Z,4.60
2022-08-01T16:09:09.264Z,4.50
2022-08-01T16:12:11.268Z,4.70
2022-08-01T16:15:01.502Z,3.88
2022-08-01T16:17:51.410Z,2.83
2022-08-01T16:20:45.521Z,2.58
2022-08-01T16:23:35.684Z,2.75
2022-08-01T16:26:27.423Z,2.75
2022-08-01T16:29:17.528Z,3.00
2022-08-01T16:32:13.012Z,2.50
2022-08-01T16:35:06.103Z,2.80
2022-08-01T16:38:29.822Z,3.13
2022-08-01T16:41:20.734Z,3.30
2022-08-01T16:44:10.675Z,3.53
2022-08-01T16:47:00.584Z,3.55
2022-08-01T16:49:50.553Z,3.20
2022-08-01T16:52:41.886Z,2.63
2022-08-01T16:55:50.652Z,2.83
2022-08-01T16:58:43.342Z,2.70
2022-08-01T17:02:01.593Z,2.83
2022-08-01T17:04:44.362Z,2.08
2022-08-01T17:07:46.495Z,2.33
2022-08-01T17:10:38.226Z,2.55
2022-08-01T17:13:27.959Z,2.20
2022-08-01T17:16:17.463Z,2.30
2022-08-01T17:19:07.115Z,2.40
2022-08-01T17:21:56.403Z,2.35
2022-08-01T17:24:46.930Z,2.72
2022-08-01T17:27:37.559Z,2.60
2022-08-01T17:30:28.784Z,2.70
2022-08-01T17:33:18.379Z,2.45
2022-08-01T17:36:10.683Z,2.45
2022-08-01T17:39:04.216Z,2.42
2022-08-01T17:41:54.082Z,3.13
2022-08-01T17:44:48.746Z,2.33
2022-08-01T17:47:50.800Z,2.88
2022-08-01T17:50:41.163Z,3.17
2022-08-01T17:53:30.960Z,2.60
2022-08-01T17:56:20.770Z,2.70
2022-08-01T17:59:10.368Z,2.50
2022-08-01T18:02:00.512Z,20.50
2022-08-01T18:04:53.621Z,4.85
2022-08-01T18:08:01.086Z,4.10
2022-08-01T18:10:53.886Z,3.08
2022-08-01T18:13:43.526Z,3.58
2022-08-01T18:16:33.470Z,3.10
2022-08-01T18:19:23.032Z,2.60
2022-08-01T18:22:31.369Z,2.67
2022-08-01T18:25:25.003Z,2.60
2022-08-01T18:28:18.976Z,2.60
2022-08-01T18:31:22.030Z,2.97
2022-08-01T18:34:11.888Z,4.05
2022-08-01T18:37:08.017Z,3.63
2022-08-01T18:39:57.935Z,3.67
2022-08-01T18:42:47.710Z,3.35
2022-08-01T18:45:42.551Z,3.72
2022-08-01T18:48:32.816Z,3.50
2022-08-01T18:51:25.065Z,2.88
2022-08-01T18:54:15.958Z,3.40
2022-08-01T18:57:15.764Z,3.20
2022-08-01T19:00:13.544Z,2.67
2022-08-01T19:03:02.937Z,2.45
2022-08-01T19:05:52.799Z,2.35
2022-08-01T19:08:43.403Z,2.10
2022-08-01T19:11:34.148Z,2.20
2022-08-01T19:14:23.572Z,2.10
2022-08-01T19:17:16.006Z,2.28
2022-08-01T19:20:08.317Z,2.40
2022-08-01T19:22:58.331Z,2.38
2022-08-01T19:25:55.419Z,2.22
2022-08-01T19:28:48.162Z,2.60
2022-08-01T19:31:46.884Z,2.40
2022-08-01T19:34:45.614Z,2.28
2022-08-01T19:37:38.294Z,2.20
2022-08-01T19:40:28.460Z,2.30
2022-08-01T19:43:19.073Z,2.58
2022-08-01T19:46:17.349Z,2.40
2022-08-01T19:49:07.761Z,2.30
2022-08-01T19:52:03.062Z,2.33
2022-08-01T19:54:56.658Z,2.33
2022-08-01T19:57:59.391Z,2.58
2022-08-01T20:00:58.280Z,2.50
2022-08-01T20:03:52.529Z,2.20
2022-08-01T20:06:49.019Z,2.80
2022-08-01T20:09:38.748Z,2.45
2022-08-01T20:12:30.441Z,2.60
2022-08-01T20:15:19.715Z,2.50
2022-08-01T20:18:08.899Z,2.47
2022-08-01T20:20:58.481Z,2.40
2022-08-01T20:23:50.850Z,2.25
2022-08-01T20:26:42.940Z,3.03
2022-08-01T20:29:33.779Z,2.90
2022-08-01T20:32:22.910Z,3.13
2022-08-01T20:35:13.242Z,3.05
2022-08-01T20:38:07.068Z,3.92
2022-08-01T20:41:03.632Z,3.10
2022-08-01T20:43:55.675Z,3.65
2022-08-01T20:46:48.712Z,3.33
2022-08-01T20:49:41.352Z,3.95
2022-08-01T20:52:30.937Z,3.55
2022-08-01T20:55:21.095Z,4.63
2022-08-01T20:58:12.001Z,4.18
2022-08-01T21:01:09.219Z,4.60
2022-08-01T21:04:16.490Z,5.65
2022-08-01T21:07:09.204Z,6.93
2022-08-01T21:10:13.218Z,5.28
2022-08-01T21:13:12.058Z,5.40
2022-08-01T21:16:24.441Z,5.50
2022-08-01T21:19:22.349Z,6.28
2022-08-01T21:22:27.162Z,4.47
2022-08-01T21:25:20.375Z,4.28
2022-08-01T21:28:09.821Z,4.32
2022-08-01T21:31:00.518Z,4.32
2022-08-01T21:34:02.305Z,4.30
2022-08-01T21:36:54.429Z,5.30
2022-08-01T21:39:46.407Z,5.80
2022-08-01T21:42:41.556Z,6.25
2022-08-01T21:45:32.405Z,5.97
2022-08-01T21:48:27.001Z,5.75
2022-08-01T21:51:41.684Z,5.15
2022-08-01T21:54:40.613Z,4.68
2022-08-01T21:57:51.055Z,7.22
2022-08-01T22:00:42.812Z,4.40
2022-08-01T22:03:54.512Z,4.10
2022-08-01T22:06:47.446Z,4.30
2022-08-01T22:09:42.370Z,4.50
2022-08-01T22:12:37.392Z,3.65
2022-08-01T22:15:45.084Z,4.20
2022-08-01T22:18:36.026Z,4.53
2022-08-01T22:21:25.573Z,4.80
2022-08-01T22:24:15.800Z,5.30
2022-08-01T22:27:06.045Z,5.47
2022-08-01T22:30:01.110Z,4.97
2022-08-01T22:33:07.390Z,5.93
2022-08-01T22:36:02.197Z,6.32
2022-08-01T22:38:52.565Z,16.08
2022-08-01T22:42:01.355Z,7.22
2022-08-01T22:45:23.068Z,5.93
2022-08-01T22:48:31.480Z,6.93
2022-08-01T22:51:34.429Z,6.00
2022-08-01T22:54:28.771Z,5.97
2022-08-01T22:57:25.273Z,6.15
2022-08-01T23:00:16.872Z,5.95
2022-08-01T23:03:32.438Z,6.15
2022-08-01T23:06:33.352Z,6.05
2022-08-01T23:09:24.059Z,6.78
2022-08-01T23:12:33.759Z,6.07
2022-08-01T23:15:26.911Z,7.28
2022-08-01T23:18:18.411Z,7.20
2022-08-01T23:21:13.551Z,10.68
2022-08-01T23:24:03.661Z,9.73
2022-08-01T23:26:53.254Z,8.88
2022-08-01T23:29:43.503Z,8.70
2022-08-01T23:32:32.871Z,8.05
2022-08-01T23:35:23.250Z,7.55
2022-08-01T23:38:13.476Z,7.40
2022-08-01T23:41:04.118Z,9.23
2022-08-01T23:43:54.167Z,9.35
2022-08-01T23:46:44.818Z,8.00
2022-08-01T23:49:34.433Z,8.25
2022-08-01T23:52:48.488Z,5.82
2022-08-01T23:55:50.308Z,5.65
2022-08-01T23:58:43.852Z,5.70
